sensor_id;sensor_type;location;lat;lon;timestamp;pressure;altitude;pressure_sealevel;temperature;humidity
40596;BME280;26304;48.794;9.820;2023-03-15T00:00:19;95728.16;;;17.22;46.79
40596;BME280;26304;48.794;9.820;2023-03-15T00:06:03;95737.94;;;17.22;46.58
40596;BME280;26304;48.794;9.820;2023-03-15T00:11:45;95766.44;;;17.20;46.76
40596;BME280;26304;48.794;9.820;2023-03-15T00:17:28;95779.19;;;17.18;46.88
40596;BME280;26304;48.794;9.820;2023-03-15T00:23:12;95778.47;;;17.14;46.95
40596;BME280;26304;48.794;9.820;2023-03-15T00:28:54;95809.22;;;17.17;47.22
40596;BME280;26304;48.794;9.820;2023-03-15T00:34:36;95800.22;;;17.11;46.71
40596;BME280;26304;48.794;9.820;2023-03-15T00:40:20;95805.47;;;17.11;47.04
40596;BME280;26304;48.794;9.820;2023-03-15T00:46:04;95829.84;;;17.11;46.58
40596;BME280;26304;48.794;9.820;2023-03-15T00:51:46;95840.72;;;17.10;46.78
40596;BME280;26304;48.794;9.820;2023-03-15T00:57:31;95857.22;;;17.06;47.14
40596;BME280;26304;48.794;9.820;2023-03-15T01:03:14;95876.72;;;17.05;47.06
40596;BME280;26304;48.794;9.820;2023-03-15T01:08:57;95892.09;;;17.00;47.82
40596;BME280;26304;48.794;9.820;2023-03-15T01:14:41;95892.09;;;17.03;46.97
40596;BME280;26304;48.794;9.820;2023-03-15T01:20:23;95912.72;;;16.98;47.37
40596;BME280;26304;48.794;9.820;2023-03-15T01:26:08;95925.47;;;16.96;47.66
40596;BME280;26304;48.794;9.820;2023-03-15T01:31:53;95931.84;;;16.95;47.38
40596;BME280;26304;48.794;9.820;2023-03-15T01:37:35;95937.09;;;16.95;46.74
40596;BME280;26304;48.794;9.820;2023-03-15T01:43:20;95942.72;;;16.93;46.84
40596;BME280;26304;48.794;9.820;2023-03-15T01:49:06;95950.19;;;16.87;47.95
40596;BME280;26304;48.794;9.820;2023-03-15T01:54:55;95947.94;;;16.86;46.88
40596;BME280;26304;48.794;9.820;2023-03-15T02:00:38;95949.44;;;16.87;47.38
40596;BME280;26304;48.794;9.820;2023-03-15T02:06:22;95967.78;;;16.83;47.76
40596;BME280;26304;48.794;9.820;2023-03-15T02:12:06;95979.38;;;16.82;46.96
40596;BME280;26304;48.794;9.820;2023-03-15T02:17:49;95988.78;;;16.83;47.27
40596;BME280;26304;48.794;9.820;2023-03-15T02:23:33;95993.78;;;17.06;47.03
40596;BME280;26304;48.794;9.820;2023-03-15T02:29:17;95998.56;;;17.89;45.07
40596;BME280;26304;48.794;9.820;2023-03-15T02:35:00;96010.91;;;18.93;43.69
40596;BME280;26304;48.794;9.820;2023-03-15T02:40:43;96024.66;;;19.40;42.86
40596;BME280;26304;48.794;9.820;2023-03-15T02:46:28;96026.63;;;19.95;42.29
40596;BME280;26304;48.794;9.820;2023-03-15T02:52:11;96037.13;;;20.55;41.47
40596;BME280;26304;48.794;9.820;2023-03-15T02:57:57;96041.88;;;20.75;41.25
40596;BME280;26304;48.794;9.820;2023-03-15T03:03:42;96055.69;;;20.90;41.21
40596;BME280;26304;48.794;9.820;2023-03-15T03:09:25;96051.63;;;21.19;40.81
40596;BME280;26304;48.794;9.820;2023-03-15T03:15:08;96064.41;;;21.59;40.35
40596;BME280;26304;48.794;9.820;2023-03-15T03:20:56;96071.59;;;21.89;40.05
40596;BME280;26304;48.794;9.820;2023-03-15T03:26:40;96096.53;;;21.88;40.30
40596;BME280;26304;48.794;9.820;2023-03-15T03:32:25;96112.34;;;21.92;40.45
40596;BME280;26304;48.794;9.820;2023-03-15T03:38:10;96120.38;;;22.16;40.05
40596;BME280;26304;48.794;9.820;2023-03-15T03:43:52;96139.16;;;22.52;39.48
40596;BME280;26304;48.794;9.820;2023-03-15T03:49:35;96140.09;;;22.65;39.65
40596;BME280;26304;48.794;9.820;2023-03-15T03:55:19;96158.31;;;22.63;39.60
40596;BME280;26304;48.794;9.820;2023-03-15T04:01:05;96170.13;;;22.82;39.56
40596;BME280;26304;48.794;9.820;2023-03-15T04:06:47;96170.22;;;22.99;39.36
40596;BME280;26304;48.794;9.820;2023-03-15T04:12:32;96176.44;;;23.16;39.31
40596;BME280;26304;48.794;9.820;2023-03-15T04:18:15;96196.09;;;23.18;39.18
40596;BME280;26304;48.794;9.820;2023-03-15T04:23:57;96202.94;;;23.16;39.57
40596;BME280;26304;48.794;9.820;2023-03-15T04:29:41;96205.91;;;23.21;39.14
40596;BME280;26304;48.794;9.820;2023-03-15T04:35:24;96208.72;;;23.34;39.00
40596;BME280;26304;48.794;9.820;2023-03-15T04:41:07;96208.50;;;23.45;39.29
40596;BME280;26304;48.794;9.820;2023-03-15T04:46:52;96218.56;;;23.34;39.45
40596;BME280;26304;48.794;9.820;2023-03-15T04:52:35;96217.41;;;23.35;39.40
40596;BME280;26304;48.794;9.820;2023-03-15T04:58:18;96236.97;;;23.21;39.84
40596;BME280;26304;48.794;9.820;2023-03-15T05:04:02;96234.25;;;23.25;40.25
40596;BME280;26304;48.794;9.820;2023-03-15T05:09:44;96237.53;;;23.32;40.00
40596;BME280;26304;48.794;9.820;2023-03-15T05:15:28;96227.88;;;23.42;40.05
40596;BME280;26304;48.794;9.820;2023-03-15T05:21:12;96223.63;;;23.48;40.17
40596;BME280;26304;48.794;9.820;2023-03-15T05:26:54;96238.91;;;23.40;40.27
40596;BME280;26304;48.794;9.820;2023-03-15T05:32:37;96227.56;;;23.40;40.58
40596;BME280;26304;48.794;9.820;2023-03-15T05:38:26;96240.22;;;23.05;41.16
40596;BME280;26304;48.794;9.820;2023-03-15T05:44:08;96248.03;;;22.89;41.44
40596;BME280;26304;48.794;9.820;2023-03-15T05:49:51;96245.53;;;22.51;42.13
40596;BME280;26304;48.794;9.820;2023-03-15T05:55:35;96243.53;;;22.31;42.63
40596;BME280;26304;48.794;9.820;2023-03-15T06:01:18;96246.31;;;22.17;42.78
40596;BME280;26304;48.794;9.820;2023-03-15T06:07:01;96251.50;;;21.93;44.99
40596;BME280;26304;48.794;9.820;2023-03-15T06:12:44;96264.13;;;21.78;44.06
40596;BME280;26304;48.794;9.820;2023-03-15T06:18:27;96265.84;;;21.54;43.79
40596;BME280;26304;48.794;9.820;2023-03-15T06:24:09;96267.56;;;21.26;44.61
40596;BME280;26304;48.794;9.820;2023-03-15T06:29:53;96266.06;;;21.25;44.27
40596;BME280;26304;48.794;9.820;2023-03-15T06:35:36;96272.69;;;20.99;44.70
40596;BME280;26304;48.794;9.820;2023-03-15T06:41:18;96277.13;;;21.13;44.19
40596;BME280;26304;48.794;9.820;2023-03-15T06:47:03;96291.56;;;20.97;44.35
40596;BME280;26304;48.794;9.820;2023-03-15T06:52:45;96305.19;;;20.92;44.08
40596;BME280;26304;48.794;9.820;2023-03-15T06:58:28;96307.88;;;20.89;44.38
40596;BME280;26304;48.794;9.820;2023-03-15T07:04:12;96305.22;;;20.89;43.70
40596;BME280;26304;48.794;9.820;2023-03-15T07:09:54;96313.19;;;20.81;44.54
40596;BME280;26304;48.794;9.820;2023-03-15T07:15:37;96310.56;;;20.78;44.74
40596;BME280;26304;48.794;9.820;2023-03-15T07:21:21;96312.81;;;20.76;44.86
40596;BME280;26304;48.794;9.820;2023-03-15T07:27:04;96313.63;;;20.65;45.03
40596;BME280;26304;48.794;9.820;2023-03-15T07:32:46;96327.22;;;20.67;45.06
40596;BME280;26304;48.794;9.820;2023-03-15T07:38:32;96334.03;;;20.65;44.74
40596;BME280;26304;48.794;9.820;2023-03-15T07:44:14;96331.00;;;20.59;45.07
40596;BME280;26304;48.794;9.820;2023-03-15T07:49:56;96324.25;;;20.51;45.36
40596;BME280;26304;48.794;9.820;2023-03-15T07:55:40;96329.53;;;20.51;45.13
40596;BME280;26304;48.794;9.820;2023-03-15T08:01:23;96340.13;;;20.40;45.33
40596;BME280;26304;48.794;9.820;2023-03-15T08:07:06;96344.66;;;20.40;45.68
40596;BME280;26304;48.794;9.820;2023-03-15T08:12:50;96337.50;;;20.37;45.55
40596;BME280;26304;48.794;9.820;2023-03-15T08:18:33;96338.66;;;20.28;45.11
40596;BME280;26304;48.794;9.820;2023-03-15T08:35:20;96356.38;;;20.21;45.59
40596;BME280;26304;48.794;9.820;2023-03-15T08:41:03;96350.00;;;20.14;46.36
40596;BME280;26304;48.794;9.820;2023-03-15T08:46:45;96350.38;;;20.09;46.45
40596;BME280;26304;48.794;9.820;2023-03-15T08:52:29;96351.50;;;20.08;45.94
40596;BME280;26304;48.794;9.820;2023-03-15T08:58:11;96350.78;;;20.04;45.25
40596;BME280;26304;48.794;9.820;2023-03-15T09:03:54;96353.78;;;20.03;44.84
40596;BME280;26304;48.794;9.820;2023-03-15T09:09:38;96357.94;;;20.00;44.94
40596;BME280;26304;48.794;9.820;2023-03-15T09:15:20;96361.69;;;19.99;44.89
40596;BME280;26304;48.794;9.820;2023-03-15T09:21:04;96371.13;;;19.96;44.82
40596;BME280;26304;48.794;9.820;2023-03-15T09:26:48;96383.56;;;20.03;44.42
40596;BME280;26304;48.794;9.820;2023-03-15T09:32:30;96388.84;;;20.03;44.80
40596;BME280;26304;48.794;9.820;2023-03-15T09:38:16;96390.72;;;19.95;45.11
40596;BME280;26304;48.794;9.820;2023-03-15T09:44:09;96390.75;;;19.92;46.18
40596;BME280;26304;48.794;9.820;2023-03-15T09:49:56;96386.97;;;19.86;46.17
40596;BME280;26304;48.794;9.820;2023-03-15T09:55:44;96393.38;;;19.95;47.24
40596;BME280;26304;48.794;9.820;2023-03-15T10:01:33;96377.16;;;19.86;47.32
40596;BME280;26304;48.794;9.820;2023-03-15T10:07:16;96386.22;;;19.85;46.82
40596;BME280;26304;48.794;9.820;2023-03-15T10:13:13;96386.22;;;19.92;46.76
40596;BME280;26304;48.794;9.820;2023-03-15T10:19:07;96379.78;;;19.97;46.67
40596;BME280;26304;48.794;9.820;2023-03-15T10:24:56;96381.31;;;19.84;46.68
40596;BME280;26304;48.794;9.820;2023-03-15T10:30:46;96382.81;;;19.81;45.78
40596;BME280;26304;48.794;9.820;2023-03-15T10:36:30;96383.19;;;19.90;46.18
40596;BME280;26304;48.794;9.820;2023-03-15T10:42:29;96379.41;;;19.99;46.07
40596;BME280;26304;48.794;9.820;2023-03-15T10:48:12;96381.69;;;19.89;46.54
40596;BME280;26304;48.794;9.820;2023-03-15T10:53:58;96373.41;;;19.80;47.36
40596;BME280;26304;48.794;9.820;2023-03-15T10:59:56;96373.41;;;19.94;46.64
40596;BME280;26304;48.794;9.820;2023-03-15T11:05:40;96380.94;;;19.78;47.49
40596;BME280;26304;48.794;9.820;2023-03-15T11:11:24;96371.88;;;19.86;46.61
40596;BME280;26304;48.794;9.820;2023-03-15T11:17:15;96366.97;;;19.85;47.21
40596;BME280;26304;48.794;9.820;2023-03-15T11:22:58;96365.13;;;19.85;47.21
40596;BME280;26304;48.794;9.820;2023-03-15T11:28:47;96362.84;;;20.02;46.99
40596;BME280;26304;48.794;9.820;2023-03-15T11:34:44;96366.19;;;20.13;47.05
40596;BME280;26304;48.794;9.820;2023-03-15T11:40:31;96350.75;;;20.08;46.86
40596;BME280;26304;48.794;9.820;2023-03-15T11:46:21;96358.69;;;20.04;47.10
40596;BME280;26304;48.794;9.820;2023-03-15T11:52:06;96359.81;;;19.92;47.38
40596;BME280;26304;48.794;9.820;2023-03-15T11:57:49;96368.88;;;19.91;47.58
40596;BME280;26304;48.794;9.820;2023-03-15T12:03:38;96364.34;;;19.92;47.28
40596;BME280;26304;48.794;9.820;2023-03-15T12:09:39;96373.41;;;19.87;47.26
40596;BME280;26304;48.794;9.820;2023-03-15T12:15:46;96368.50;;;19.86;47.43
40596;BME280;26304;48.794;9.820;2023-03-15T12:21:33;96373.03;;;19.85;47.68
40596;BME280;26304;48.794;9.820;2023-03-15T12:27:18;96373.78;;;19.89;47.34
40596;BME280;26304;48.794;9.820;2023-03-15T12:33:02;96371.88;;;19.86;46.76
40596;BME280;26304;48.794;9.820;2023-03-15T12:39:00;96367.00;;;19.81;47.41
40596;BME280;26304;48.794;9.820;2023-03-15T12:44:44;96376.41;;;19.96;46.80
40596;BME280;26304;48.794;9.820;2023-03-15T12:50:36;96386.56;;;19.66;46.89
40596;BME280;26304;48.794;9.820;2023-03-15T12:56:34;96389.94;;;19.59;46.45
40596;BME280;26304;48.794;9.820;2023-03-15T13:02:24;96395.22;;;19.55;47.02
40596;BME280;26304;48.794;9.820;2023-03-15T13:08:08;96410.28;;;19.55;45.98
40596;BME280;26304;48.794;9.820;2023-03-15T13:14:06;96420.44;;;19.49;46.33
40596;BME280;26304;48.794;9.820;2023-03-15T13:20:11;96424.22;;;19.48;46.54
40596;BME280;26304;48.794;9.820;2023-03-15T13:26:12;96434.38;;;19.46;46.73
40596;BME280;26304;48.794;9.820;2023-03-15T13:32:11;96425.69;;;19.38;46.91
40596;BME280;26304;48.794;9.820;2023-03-15T13:38:05;96428.31;;;19.38;46.74
40596;BME280;26304;48.794;9.820;2023-03-15T13:43:50;96427.59;;;19.38;46.28
40596;BME280;26304;48.794;9.820;2023-03-15T13:49:34;96440.03;;;19.34;46.17
40596;BME280;26304;48.794;9.820;2023-03-15T13:55:20;96435.09;;;19.29;46.32
40596;BME280;26304;48.794;9.820;2023-03-15T14:01:07;96425.28;;;19.26;46.72
40596;BME280;26304;48.794;9.820;2023-03-15T14:07:05;96424.53;;;19.21;46.90
40596;BME280;26304;48.794;9.820;2023-03-15T14:12:50;96420.75;;;19.19;46.98
40596;BME280;26304;48.794;9.820;2023-03-15T14:18:34;96415.84;;;19.17;46.49
40596;BME280;26304;48.794;9.820;2023-03-15T14:24:26;96411.75;;;19.27;46.77
40596;BME280;26304;48.794;9.820;2023-03-15T14:30:17;96415.53;;;19.37;47.88
40596;BME280;26304;48.794;9.820;2023-03-15T14:36:02;96409.88;;;19.38;47.58
40596;BME280;26304;48.794;9.820;2023-03-15T14:41:46;96416.28;;;19.37;47.87
40596;BME280;26304;48.794;9.820;2023-03-15T14:47:28;96413.63;;;19.30;48.27
40596;BME280;26304;48.794;9.820;2023-03-15T14:53:14;96409.50;;;19.40;48.64
40596;BME280;26304;48.794;9.820;2023-03-15T14:58:59;96404.59;;;19.31;48.17
40596;BME280;26304;48.794;9.820;2023-03-15T15:04:44;96396.72;;;19.42;48.04
40596;BME280;26304;48.794;9.820;2023-03-15T15:10:29;96383.94;;;19.66;47.92
40596;BME280;26304;48.794;9.820;2023-03-15T15:16:13;96404.28;;;19.62;48.14
40596;BME280;26304;48.794;9.820;2023-03-15T15:21:56;96408.44;;;19.63;50.00
40596;BME280;26304;48.794;9.820;2023-03-15T15:27:38;96402.75;;;19.75;55.01
40596;BME280;26304;48.794;9.820;2023-03-15T15:33:22;96414.09;;;19.83;54.20
40596;BME280;26304;48.794;9.820;2023-03-15T15:39:12;96426.91;;;19.84;51.68
40596;BME280;26304;48.794;9.820;2023-03-15T15:44:56;96430.69;;;19.83;56.74
40596;BME280;26304;48.794;9.820;2023-03-15T15:50:40;96429.94;;;19.79;54.42
40596;BME280;26304;48.794;9.820;2023-03-15T15:56:28;96435.97;;;19.80;53.06
40596;BME280;26304;48.794;9.820;2023-03-15T16:02:13;96443.88;;;19.76;52.58
40596;BME280;26304;48.794;9.820;2023-03-15T16:08:04;96449.47;;;19.67;52.71
40596;BME280;26304;48.794;9.820;2023-03-15T16:13:49;96460.03;;;19.64;52.10
40596;BME280;26304;48.794;9.820;2023-03-15T16:19:33;96468.31;;;19.58;52.03
40596;BME280;26304;48.794;9.820;2023-03-15T16:25:18;96475.84;;;19.56;51.91
40596;BME280;26304;48.794;9.820;2023-03-15T16:31:05;96490.88;;;19.52;51.94
40596;BME280;26304;48.794;9.820;2023-03-15T16:36:49;96493.91;;;19.47;51.70
40596;BME280;26304;48.794;9.820;2023-03-15T16:42:36;96502.19;;;19.46;51.80
40596;BME280;26304;48.794;9.820;2023-03-15T16:48:18;96495.38;;;19.41;50.93
40596;BME280;26304;48.794;9.820;2023-03-15T16:54:01;96506.72;;;19.52;50.98
40596;BME280;26304;48.794;9.820;2023-03-15T16:59:45;96512.34;;;19.54;51.25
40596;BME280;26304;48.794;9.820;2023-03-15T17:05:27;96519.16;;;19.52;51.80
40596;BME280;26304;48.794;9.820;2023-03-15T17:11:10;96522.56;;;19.59;52.26
40596;BME280;26304;48.794;9.820;2023-03-15T17:16:54;96525.59;;;19.65;52.32
40596;BME280;26304;48.794;9.820;2023-03-15T17:22:36;96544.09;;;19.76;51.67
40596;BME280;26304;48.794;9.820;2023-03-15T17:28:19;96558.00;;;19.69;52.40
40596;BME280;26304;48.794;9.820;2023-03-15T17:34:02;96560.28;;;19.71;53.02
40596;BME280;26304;48.794;9.820;2023-03-15T17:39:45;96564.41;;;19.65;53.92
40596;BME280;26304;48.794;9.820;2023-03-15T17:45:30;96559.53;;;19.74;53.56
40596;BME280;26304;48.794;9.820;2023-03-15T17:51:18;96568.63;;;19.80;53.53
40596;BME280;26304;48.794;9.820;2023-03-15T17:57:01;96573.84;;;19.73;53.34
40596;BME280;26304;48.794;9.820;2023-03-15T18:02:44;96582.56;;;19.81;52.98
40596;BME280;26304;48.794;9.820;2023-03-15T18:08:29;96591.59;;;19.83;53.00
40596;BME280;26304;48.794;9.820;2023-03-15T18:14:13;96589.28;;;19.74;53.07
40596;BME280;26304;48.794;9.820;2023-03-15T18:19:56;96599.44;;;19.65;53.24
40596;BME280;26304;48.794;9.820;2023-03-15T18:25:40;96600.94;;;19.70;54.10
40596;BME280;26304;48.794;9.820;2023-03-15T18:31:24;96607.75;;;19.71;53.79
40596;BME280;26304;48.794;9.820;2023-03-15T18:37:07;96619.03;;;19.68;53.88
40596;BME280;26304;48.794;9.820;2023-03-15T18:42:53;96620.16;;;19.67;53.57
40596;BME280;26304;48.794;9.820;2023-03-15T18:48:37;96617.88;;;19.62;53.73
40596;BME280;26304;48.794;9.820;2023-03-15T18:54:19;96614.09;;;19.55;53.51
40596;BME280;26304;48.794;9.820;2023-03-15T19:00:07;96619.72;;;19.47;53.20
40596;BME280;26304;48.794;9.820;2023-03-15T19:05:53;96620.38;;;19.33;52.60
40596;BME280;26304;48.794;9.820;2023-03-15T19:11:35;96618.84;;;19.28;52.00
40596;BME280;26304;48.794;9.820;2023-03-15T19:17:23;96619.63;;;19.32;51.52
40596;BME280;26304;48.794;9.820;2023-03-15T19:23:05;96614.81;;;19.45;51.53
40596;BME280;26304;48.794;9.820;2023-03-15T19:28:50;96614.69;;;19.23;48.81
40596;BME280;26304;48.794;9.820;2023-03-15T19:34:34;96621.34;;;19.06;46.73
40596;BME280;26304;48.794;9.820;2023-03-15T19:40:18;96632.25;;;19.05;46.09
40596;BME280;26304;48.794;9.820;2023-03-15T19:46:01;96636.75;;;19.01;46.81
40596;BME280;26304;48.794;9.820;2023-03-15T19:51:46;96631.78;;;18.92;46.21
40596;BME280;26304;48.794;9.820;2023-03-15T19:57:28;96646.50;;;18.97;44.52
40596;BME280;26304;48.794;9.820;2023-03-15T20:03:11;96639.97;;;18.83;42.81
40596;BME280;26304;48.794;9.820;2023-03-15T20:08:55;96647.81;;;18.76;42.84
40596;BME280;26304;48.794;9.820;2023-03-15T20:14:37;96652.41;;;18.83;43.65
40596;BME280;26304;48.794;9.820;2023-03-15T20:20:20;96648.94;;;18.75;43.12
40596;BME280;26304;48.794;9.820;2023-03-15T20:26:05;96660.72;;;18.85;43.16
40596;BME280;26304;48.794;9.820;2023-03-15T20:31:49;96656.47;;;18.77;44.40
40596;BME280;26304;48.794;9.820;2023-03-15T20:37:33;96649.59;;;18.65;45.43
40596;BME280;26304;48.794;9.820;2023-03-15T20:43:17;96650.66;;;18.57;45.24
40596;BME280;26304;48.794;9.820;2023-03-15T20:48:59;96651.78;;;18.56;45.50
40596;BME280;26304;48.794;9.820;2023-03-15T20:54:42;96650.59;;;18.49;46.11
40596;BME280;26304;48.794;9.820;2023-03-15T21:00:26;96652.81;;;18.47;46.18
40596;BME280;26304;48.794;9.820;2023-03-15T21:06:09;96661.41;;;18.41;46.53
40596;BME280;26304;48.794;9.820;2023-03-15T21:11:51;96665.91;;;18.37;46.70
40596;BME280;26304;48.794;9.820;2023-03-15T21:17:35;96674.09;;;18.31;46.96
40596;BME280;26304;48.794;9.820;2023-03-15T21:23:17;96666.19;;;18.28;46.87
40596;BME280;26304;48.794;9.820;2023-03-15T21:29:00;96673.28;;;18.24;47.11
40596;BME280;26304;48.794;9.820;2023-03-15T21:34:43;96674.72;;;18.18;47.40
40596;BME280;26304;48.794;9.820;2023-03-15T21:40:26;96680.72;;;18.14;47.42
40596;BME280;26304;48.794;9.820;2023-03-15T21:46:10;96660.72;;;18.10;47.44
40596;BME280;26304;48.794;9.820;2023-03-15T21:51:55;96668.94;;;18.05;47.88
40596;BME280;26304;48.794;9.820;2023-03-15T21:57:37;96662.91;;;18.04;47.50
40596;BME280;26304;48.794;9.820;2023-03-15T22:03:19;96669.59;;;17.98;48.21
40596;BME280;26304;48.794;9.820;2023-03-15T22:09:06;96677.81;;;17.93;47.95
40596;BME280;26304;48.794;9.820;2023-03-15T22:14:49;96683.06;;;17.93;48.00
40596;BME280;26304;48.794;9.820;2023-03-15T22:20:32;96672.44;;;17.86;48.27
40596;BME280;26304;48.794;9.820;2023-03-15T22:26:16;96672.44;;;17.86;48.27
40596;BME280;26304;48.794;9.820;2023-03-15T22:31:58;96680.25;;;17.78;48.41
40596;BME280;26304;48.794;9.820;2023-03-15T22:37:41;96676.47;;;17.76;48.21
40596;BME280;26304;48.794;9.820;2023-03-15T22:43:24;96683.19;;;17.73;48.29
40596;BME280;26304;48.794;9.820;2023-03-15T22:49:07;96675.63;;;17.68;48.57
40596;BME280;26304;48.794;9.820;2023-03-15T22:54:49;96680.06;;;17.64;48.40
40596;BME280;26304;48.794;9.820;2023-03-15T23:00:33;96666.16;;;17.64;48.58
40596;BME280;26304;48.794;9.820;2023-03-15T23:06:16;96671.38;;;17.60;48.51
40596;BME280;26304;48.794;9.820;2023-03-15T23:11:58;96660.06;;;17.56;48.77
40596;BME280;26304;48.794;9.820;2023-03-15T23:17:42;96658.53;;;17.55;48.12
40596;BME280;26304;48.794;9.820;2023-03-15T23:23:26;96657.75;;;17.51;48.38
40596;BME280;26304;48.794;9.820;2023-03-15T23:29:09;96651.34;;;17.52;48.86
40596;BME280;26304;48.794;9.820;2023-03-15T23:34:53;96660.25;;;17.43;49.08
40596;BME280;26304;48.794;9.820;2023-03-15T23:40:35;96652.34;;;17.40;49.04
40596;BME280;26304;48.794;9.820;2023-03-15T23:46:17;96651.13;;;17.34;48.66
40596;BME280;26304;48.794;9.820;2023-03-15T23:52:01;96644.81;;;17.38;48.83
40596;BME280;26304;48.794;9.820;2023-03-15T23:57:46;96651.13;;;17.34;48.85
